KPZQ METAR Reports


Rogers City, Presque Isle County Airport, MI, United States (KPZQ) 45-24-25N 083-48-46W
Jan 26, 2020 - 08:16 PM EST / 2020.01.27 0116 UTC
Wind: from the WNW (300 degrees) at 10 MPH (9 KT) gusting to 17 MPH (15 KT):0
Visibility: 10 mile(s):0
Sky conditions: overcast
Temperature: 30.2 F (-1.0 C)
Windchill: 21 F (-6 C):1
Dew Point: 27.7 F (-2.4 C)
Relative Humidity: 90%
Pressure (altimeter): 29.75 in. Hg (1007 hPa)
ob: KPZQ 270116Z AUTO 30009G15KT 10SM OVC010 M01/M02 A2975 RMK AO2 T10101024
cycle: 1

 

Rogers City METAR Meteogram

Weather Chart

Nearby METAR Reports

KPZQ - Rogers City, Michigan, USA
Distance from station: SSW 1mi, 2km
Updated: Sun, 26-Jan-2020 8:16pm EST
Overcast
Overcast
 Wind from WNW
Wind: WNW 10 mph , 17 km/h, Gust: 17 mph , 28 km/h
Temperature: 30°F , -1°C
Wind Chill: 21°F , -6°C
Dew Point: 28°F , -2°C
Humidity: 93%
Barometer: 29.75 inHg , 1007.5 hPa
Clouds: Overcast
Visibility: 10 miles , 16 km
Cloud details: Overcast 1000 ft
2020/01/27 01:16 KPZQ 270116Z AUTO 30009G15KT 10SM OVC010 M01/M02 A2975 RMK AO2 T10101024
KAPN - Alpena, Michigan, USA
Distance from station: SSE 27mi, 43km
Updated: Sun, 26-Jan-2020 7:54pm EST
NOT Current
Overcast
Overcast
 Wind from W
Wind: W 7 mph , 11 km/h, Gust: 18 mph , 30 km/h
Temperature: 30°F , -1°C
Wind Chill: 23°F , -5°C
Dew Point: 27°F , -3°C
Humidity: 86%
Barometer: 29.73 inHg , 1006.8 hPa
Clouds: Overcast
Visibility: 10 miles , 16 km
Cloud details: Overcast 1000 ft
2020/01/27 00:54 KAPN 270054Z 28006G16KT 10SM OVC010 M01/M03 A2973 RMK AO2 SLP075 T10061028 $
 
KSLH - Cheboygan, Michigan, USA
Distance from station: WNW 38mi, 61km
Updated: Sun, 26-Jan-2020 8:15pm EST
Overcast
Overcast
 Wind from WNW
Wind: WNW 12 mph , 19 km/h, Gust: 16 mph , 26 km/h
Temperature: 30°F , -1°C
Wind Chill: 20°F , -7°C
Dew Point: 27°F , -3°C
Humidity: 86%
Barometer: 29.76 inHg , 1007.8 hPa
Clouds: Overcast
Visibility: 10 miles , 16 km
Cloud details: Overcast 1200 ft
2020/01/27 01:15 KSLH 270115Z AUTO 30010G14KT 10SM OVC012 M01/M03 A2976 RMK AO2 T10071026
KDRM - Drummond Is, Michigan, USA
Distance from station: N 40mi, 65km
Updated: Sun, 26-Jan-2020 8:16pm EST
Overcast
Overcast
 Wind from calm
Wind: Calm
Temperature: 30°F , -1°C
Dew Point: 28°F , -2°C
Humidity: 93%
Barometer: 29.72 inHg , 1006.4 hPa
Clouds: Overcast
Visibility: 10 miles , 16 km
Cloud details: Overcast 3700 ft
2020/01/27 01:16 KDRM 270116Z AUTO 00000KT 10SM OVC037 M01/M02 A2972 RMK AO2 T10081020
 
KPLN - Pellston, Michigan, USA
Distance from station: WNW 49mi, 79km
Updated: Sun, 26-Jan-2020 7:54pm EST
NOT Current
Overcast
Overcast
 Wind from NNW
Wind: NNW 12 mph , 19 km/h
Temperature: 30°F , -1°C
Wind Chill: 20°F , -7°C
Dew Point: 27°F , -3°C
Humidity: 86%
Barometer: 29.78 inHg , 1008.5 hPa
Clouds: Overcast
Visibility: 10 miles , 16 km
Cloud details: Overcast 1100 ft
2020/01/27 00:54 KPLN 270054Z AUTO 33010KT 10SM OVC011 M01/M03 A2978 RMK AO2 SLP093 T10111033
KMCD - Mackinac Island, Michigan, USA
Distance from station: NW 50mi, 80km
Updated: Sun, 26-Jan-2020 8:15pm EST
Overcast
Overcast
 Wind from NNW
Wind: NNW 9 mph , 15 km/h, Gust: 20 mph , 31 km/h
Temperature: 30°F , -1°C
Wind Chill: 22°F , -6°C
Dew Point: 30°F , -1°C
Humidity: 100%
Barometer: 29.76 inHg , 1007.8 hPa
Clouds: Overcast
Visibility: 10 miles , 16 km
Cloud details: Overcast 900 ft
2020/01/27 01:15 KMCD 270115Z AUTO 33008G17KT 10SM OVC009 M01/M01 A2976 RMK AO2 T10141014